createdAt,value
2017-05-22T00:01:42.863Z,60.50
2017-05-22T00:04:11.711Z,60.50
2017-05-22T00:06:40.558Z,60.00
2017-05-22T00:09:09.427Z,60.10
2017-05-22T00:11:38.266Z,60.40
2017-05-22T00:14:07.103Z,60.60
2017-05-22T00:16:35.948Z,59.70
2017-05-22T00:19:04.784Z,59.60
2017-05-22T00:21:33.775Z,60.70
2017-05-22T00:24:02.626Z,60.20
2017-05-22T00:26:31.471Z,59.90
2017-05-22T00:29:00.328Z,60.20
2017-05-22T00:31:29.177Z,60.80
2017-05-22T00:33:58.019Z,61.20
2017-05-22T00:36:26.861Z,61.40
2017-05-22T00:38:55.714Z,61.40
2017-05-22T00:41:24.560Z,61.80
2017-05-22T00:43:53.420Z,61.70
2017-05-22T00:46:22.247Z,61.70
2017-05-22T00:48:51.098Z,61.90
2017-05-22T00:51:19.961Z,61.90
2017-05-22T00:53:48.797Z,62.40
2017-05-22T00:56:17.648Z,62.60
2017-05-22T00:58:46.494Z,62.70
2017-05-22T01:01:15.359Z,62.90
2017-05-22T01:03:44.200Z,63.00
2017-05-22T01:06:13.055Z,62.80
2017-05-22T01:08:41.902Z,62.80
2017-05-22T01:11:10.751Z,63.20
2017-05-22T01:13:39.597Z,63.40
2017-05-22T01:16:07.665Z,63.40
2017-05-22T01:18:36.494Z,63.40
2017-05-22T01:21:05.348Z,63.40
2017-05-22T01:23:34.197Z,63.00
2017-05-22T01:26:03.045Z,63.40
2017-05-22T01:28:31.890Z,63.30
2017-05-22T01:31:00.742Z,63.30
2017-05-22T01:33:29.586Z,63.50
2017-05-22T01:35:58.419Z,63.20
2017-05-22T01:38:27.270Z,63.20
2017-05-22T01:40:56.106Z,63.20
2017-05-22T01:43:24.935Z,63.40
2017-05-22T01:45:53.779Z,63.70
2017-05-22T01:48:22.627Z,64.10
2017-05-22T01:50:51.486Z,63.20
2017-05-22T01:53:20.321Z,62.10
2017-05-22T01:55:49.160Z,62.00
2017-05-22T01:58:18.014Z,62.40
2017-05-22T02:00:46.087Z,62.40
2017-05-22T02:03:14.937Z,62.30
2017-05-22T02:05:43.798Z,62.80
2017-05-22T02:08:12.638Z,63.10
2017-05-22T02:10:40.705Z,63.10
2017-05-22T02:13:09.555Z,62.60
2017-05-22T02:15:38.396Z,60.90
2017-05-22T02:18:07.253Z,60.40
2017-05-22T02:20:36.097Z,60.00
2017-05-22T02:23:04.938Z,60.20
2017-05-22T02:25:33.775Z,60.30
2017-05-22T02:28:02.616Z,60.30
2017-05-22T02:30:31.480Z,60.20
2017-05-22T02:33:00.315Z,60.40
2017-05-22T02:35:29.175Z,60.40
2017-05-22T02:37:58.031Z,59.80
2017-05-22T02:40:26.102Z,60.50
2017-05-22T02:42:54.971Z,59.70
2017-05-22T02:45:23.803Z,59.80
2017-05-22T02:47:52.659Z,59.70
2017-05-22T02:50:21.519Z,59.90
2017-05-22T02:52:50.386Z,59.60
2017-05-22T02:55:19.231Z,59.30
2017-05-22T02:57:48.111Z,59.60
2017-05-22T03:00:16.966Z,59.50
2017-05-22T03:02:45.818Z,59.50
2017-05-22T03:05:14.660Z,59.50
2017-05-22T03:07:43.514Z,59.40
2017-05-22T03:10:12.388Z,59.10
2017-05-22T03:12:40.457Z,59.10
2017-05-22T03:15:09.327Z,59.30
2017-05-22T03:17:38.173Z,59.50
2017-05-22T03:20:07.005Z,59.60
2017-05-22T03:22:35.114Z,59.60
2017-05-22T03:25:03.959Z,59.60
2017-05-22T03:27:32.854Z,59.70
2017-05-22T03:30:01.692Z,59.50
2017-05-22T03:32:30.551Z,59.70
2017-05-22T03:34:59.405Z,59.50
2017-05-22T03:37:28.312Z,59.50
2017-05-22T03:39:57.308Z,59.30
2017-05-22T03:42:26.232Z,59.10
2017-05-22T03:44:55.177Z,59.50
2017-05-22T03:47:24.019Z,59.30
2017-05-22T03:49:53.088Z,59.10
2017-05-22T03:52:21.928Z,59.20
2017-05-22T03:54:50.799Z,59.20
2017-05-22T03:57:19.666Z,58.90
2017-05-22T03:59:48.505Z,59.00
2017-05-22T04:02:17.383Z,59.40
2017-05-22T04:04:46.236Z,58.70
2017-05-22T04:07:15.067Z,58.90
2017-05-22T04:09:43.935Z,58.90
2017-05-22T04:12:12.035Z,58.90
2017-05-22T04:14:40.894Z,59.10
2017-05-22T04:17:09.734Z,58.90
2017-05-22T04:19:38.588Z,58.80
2017-05-22T04:22:07.446Z,58.70
2017-05-22T04:24:36.276Z,58.70
2017-05-22T04:27:05.121Z,58.60
2017-05-22T04:29:33.971Z,58.30
2017-05-22T04:32:02.825Z,58.20
2017-05-22T04:34:31.663Z,58.20
2017-05-22T04:37:00.519Z,58.20
2017-05-22T04:39:29.372Z,58.10
2017-05-22T04:41:58.234Z,57.70
2017-05-22T04:44:27.090Z,57.90
2017-05-22T04:46:55.920Z,57.40
2017-05-22T04:49:24.783Z,57.60
2017-05-22T04:51:53.652Z,57.60
2017-05-22T04:54:22.523Z,57.20
2017-05-22T04:56:51.382Z,56.70
2017-05-22T04:59:20.238Z,56.20
2017-05-22T05:01:49.108Z,55.80
2017-05-22T05:04:18.067Z,56.10
2017-05-22T05:06:46.928Z,55.30
2017-05-22T05:09:15.780Z,55.30
2017-05-22T05:11:44.635Z,55.50
2017-05-22T05:14:13.505Z,54.90
2017-05-22T05:16:42.340Z,55.10
2017-05-22T05:19:11.182Z,54.80
2017-05-22T05:21:40.029Z,54.60
2017-05-22T05:24:08.984Z,54.50
2017-05-22T05:26:37.831Z,54.10
2017-05-22T05:29:06.685Z,53.20
2017-05-22T05:31:35.514Z,53.00
2017-05-22T05:34:04.346Z,51.80
2017-05-22T05:36:33.172Z,51.10
2017-05-22T05:39:02.013Z,52.10
2017-05-22T05:41:30.877Z,51.70
2017-05-22T05:43:58.974Z,51.60
2017-05-22T05:46:27.819Z,51.10
2017-05-22T05:48:56.671Z,50.20
2017-05-22T05:51:25.517Z,50.20
2017-05-22T05:53:54.368Z,50.90
2017-05-22T05:56:23.238Z,51.10
2017-05-22T05:58:52.077Z,50.40
2017-05-22T06:01:20.919Z,50.30
2017-05-22T06:03:49.867Z,50.70
2017-05-22T06:06:18.895Z,48.90
2017-05-22T06:08:47.821Z,49.10
2017-05-22T06:11:16.680Z,48.10
2017-05-22T06:13:45.580Z,48.70
2017-05-22T06:16:14.437Z,49.30
2017-05-22T06:18:43.378Z,48.80
2017-05-22T06:21:12.431Z,48.90
2017-05-22T06:23:41.343Z,49.00
2017-05-22T06:26:10.234Z,48.80
2017-05-22T06:28:39.113Z,48.30
2017-05-22T06:31:08.014Z,47.30
2017-05-22T06:33:36.885Z,48.60
2017-05-22T06:36:05.731Z,48.00
2017-05-22T06:38:34.581Z,47.50
2017-05-22T06:41:03.418Z,46.00
2017-05-22T06:43:32.247Z,45.80
2017-05-22T06:46:01.106Z,45.50
2017-05-22T06:48:29.950Z,45.20
2017-05-22T06:50:58.798Z,43.90
2017-05-22T06:53:27.619Z,43.90
2017-05-22T06:55:56.471Z,44.20
2017-05-22T06:58:25.322Z,44.50
2017-05-22T07:00:54.161Z,44.20
2017-05-22T07:03:23.024Z,44.70
2017-05-22T07:05:51.862Z,44.40
2017-05-22T07:08:20.722Z,44.90
2017-05-22T07:10:49.583Z,43.90
2017-05-22T07:13:18.445Z,43.80
2017-05-22T07:15:47.293Z,44.20
2017-05-22T07:18:16.147Z,43.00
2017-05-22T07:20:44.985Z,42.60
2017-05-22T07:23:13.821Z,41.50
2017-05-22T07:25:42.666Z,40.80
2017-05-22T07:28:11.507Z,41.60
2017-05-22T07:30:40.358Z,41.40
2017-05-22T07:33:09.185Z,39.90
2017-05-22T07:35:38.015Z,39.90
2017-05-22T07:38:06.852Z,41.40
2017-05-22T07:40:35.690Z,38.90
2017-05-22T07:43:04.541Z,38.70
2017-05-22T07:45:33.368Z,38.10
2017-05-22T07:48:02.217Z,37.90
2017-05-22T07:50:31.056Z,37.60
2017-05-22T07:52:59.907Z,36.90
2017-05-22T07:55:28.757Z,37.30
2017-05-22T07:57:57.585Z,37.40
2017-05-22T08:00:26.455Z,37.00
2017-05-22T08:02:55.300Z,36.90
2017-05-22T08:05:23.395Z,36.80
2017-05-22T08:07:52.249Z,36.00
2017-05-22T08:10:21.072Z,35.40
2017-05-22T08:12:49.904Z,35.00
2017-05-22T08:15:17.994Z,35.00
2017-05-22T08:17:46.838Z,34.30
2017-05-22T08:20:15.679Z,34.40
2017-05-22T08:22:44.520Z,34.90
2017-05-22T08:25:13.351Z,35.40
2017-05-22T08:27:43.020Z,34.20
2017-05-22T08:30:11.851Z,34.10
2017-05-22T08:32:40.694Z,34.00
2017-05-22T08:35:10.574Z,34.10
2017-05-22T08:37:39.405Z,34.30
2017-05-22T08:40:08.275Z,33.70
2017-05-22T08:42:37.104Z,32.20
2017-05-22T08:45:05.940Z,33.10
2017-05-22T08:47:34.791Z,34.10
2017-05-22T08:50:03.638Z,33.90
2017-05-22T08:52:32.468Z,33.00
2017-05-22T08:55:01.328Z,33.60
2017-05-22T08:57:30.191Z,34.00
2017-05-22T08:59:59.032Z,33.20
2017-05-22T09:02:27.855Z,33.20
2017-05-22T09:04:56.714Z,31.30
2017-05-22T09:07:25.571Z,32.90
2017-05-22T09:09:54.401Z,32.20
2017-05-22T09:12:23.223Z,32.70
2017-05-22T09:14:52.068Z,31.90
2017-05-22T09:17:20.914Z,31.70
2017-05-22T09:19:49.763Z,31.30
2017-05-22T09:22:18.595Z,30.00
2017-05-22T09:24:47.430Z,29.90
2017-05-22T09:27:16.290Z,30.10
2017-05-22T09:29:45.151Z,29.10
2017-05-22T09:32:14.016Z,29.20
2017-05-22T09:34:42.847Z,28.60
2017-05-22T09:37:11.677Z,26.90
2017-05-22T09:39:40.512Z,27.50
2017-05-22T09:42:09.355Z,26.90
2017-05-22T09:44:38.208Z,26.60
2017-05-22T09:47:07.050Z,26.20
2017-05-22T09:49:35.911Z,26.80
2017-05-22T09:52:04.732Z,27.30
2017-05-22T09:54:33.560Z,27.50
2017-05-22T09:57:02.397Z,28.60
2017-05-22T09:59:31.246Z,27.70
2017-05-22T10:02:00.080Z,27.50
2017-05-22T10:04:28.915Z,26.50
2017-05-22T10:06:58.025Z,25.80
2017-05-22T10:09:26.837Z,25.70
2017-05-22T10:11:55.688Z,26.30
2017-05-22T10:14:24.526Z,25.90
2017-05-22T10:16:53.364Z,24.40
2017-05-22T10:19:22.192Z,25.90
2017-05-22T10:21:51.032Z,26.70
2017-05-22T10:24:19.900Z,27.10
2017-05-22T10:26:48.745Z,27.20
2017-05-22T10:29:17.589Z,27.60
2017-05-22T10:31:46.445Z,27.80
2017-05-22T10:34:15.275Z,26.70
2017-05-22T10:36:44.507Z,27.40
2017-05-22T10:39:13.351Z,27.40
2017-05-22T10:41:42.195Z,26.80
2017-05-22T10:44:11.039Z,26.90
2017-05-22T10:46:39.888Z,27.50
2017-05-22T10:49:08.720Z,27.40
2017-05-22T10:51:37.574Z,27.60
2017-05-22T10:54:06.408Z,26.70
2017-05-22T10:56:35.236Z,27.50
2017-05-22T10:59:04.111Z,26.10
2017-05-22T11:01:32.963Z,25.80
2017-05-22T11:04:01.805Z,25.50
2017-05-22T11:06:30.637Z,24.30
2017-05-22T11:08:59.473Z,24.30
2017-05-22T11:11:28.330Z,24.30
2017-05-22T11:13:57.183Z,24.80
2017-05-22T11:16:26.043Z,25.60
2017-05-22T11:18:54.868Z,26.60
2017-05-22T11:21:23.700Z,26.60
2017-05-22T11:23:52.548Z,27.40
2017-05-22T11:26:21.379Z,26.40
2017-05-22T11:28:50.214Z,26.50
2017-05-22T11:31:19.059Z,25.50
2017-05-22T11:33:47.920Z,26.00
2017-05-22T11:36:16.744Z,25.50
2017-05-22T11:38:45.627Z,27.70
2017-05-22T11:41:13.696Z,27.70
2017-05-22T11:43:42.539Z,27.80
2017-05-22T11:46:11.387Z,28.50
2017-05-22T11:48:40.220Z,29.20
2017-05-22T11:51:09.063Z,28.70
2017-05-22T11:53:37.889Z,28.60
2017-05-22T11:56:06.734Z,28.60
2017-05-22T11:58:35.580Z,27.90
2017-05-22T12:01:04.413Z,26.70
2017-05-22T12:03:33.281Z,26.60
2017-05-22T12:06:02.127Z,27.70
2017-05-22T12:08:30.951Z,27.40
2017-05-22T12:10:59.784Z,26.60
2017-05-22T12:13:28.656Z,27.40
2017-05-22T12:15:56.735Z,27.40
2017-05-22T12:18:25.580Z,27.10
2017-05-22T12:20:53.665Z,27.10
2017-05-22T12:23:22.492Z,26.00
2017-05-22T12:25:51.356Z,27.10
2017-05-22T12:28:20.206Z,29.40
2017-05-22T12:30:49.063Z,29.50
2017-05-22T12:33:17.902Z,29.70
2017-05-22T12:35:45.953Z,29.70
2017-05-22T12:38:14.789Z,30.00
2017-05-22T12:40:43.649Z,29.80
2017-05-22T12:43:12.480Z,30.10
2017-05-22T12:45:41.338Z,31.10
2017-05-22T12:48:10.196Z,33.10
2017-05-22T12:50:39.033Z,31.60
2017-05-22T12:53:07.873Z,31.30
2017-05-22T12:55:36.719Z,31.40
2017-05-22T12:58:04.831Z,31.30
2017-05-22T13:00:33.680Z,33.00
2017-05-22T13:03:02.515Z,34.10
2017-05-22T13:05:31.379Z,33.60
2017-05-22T13:08:00.207Z,34.40
2017-05-22T13:10:29.037Z,33.60
2017-05-22T13:12:57.119Z,33.50
2017-05-22T13:15:25.952Z,31.00
2017-05-22T13:17:54.792Z,32.40
2017-05-22T13:20:23.624Z,32.40
2017-05-22T13:22:52.479Z,32.30
2017-05-22T13:25:21.311Z,31.20
2017-05-22T13:27:50.151Z,31.50
2017-05-22T13:30:18.983Z,31.30
2017-05-22T13:32:47.817Z,31.10
2017-05-22T13:35:16.668Z,31.20
2017-05-22T13:37:45.521Z,31.70
2017-05-22T13:40:14.379Z,31.60
2017-05-22T13:42:43.221Z,31.30
2017-05-22T13:45:12.062Z,31.20
2017-05-22T13:47:40.896Z,31.60
2017-05-22T13:50:09.737Z,32.60
2017-05-22T13:52:38.587Z,33.20
2017-05-22T13:55:07.501Z,33.60
2017-05-22T13:57:36.369Z,33.90
2017-05-22T14:00:05.192Z,33.20
2017-05-22T14:02:34.045Z,33.60
2017-05-22T14:05:02.882Z,33.50
2017-05-22T14:07:31.925Z,32.90
2017-05-22T14:10:00.763Z,32.80
2017-05-22T14:12:29.606Z,33.40
2017-05-22T14:14:58.457Z,34.10
2017-05-22T14:17:27.289Z,34.00
2017-05-22T14:19:56.134Z,34.20
2017-05-22T14:22:24.990Z,33.20
2017-05-22T14:24:53.836Z,32.70
2017-05-22T14:27:22.671Z,33.10
2017-05-22T14:29:51.521Z,34.00
2017-05-22T14:32:19.588Z,34.00
2017-05-22T14:34:48.420Z,33.70
2017-05-22T14:37:17.267Z,33.50
2017-05-22T14:39:46.119Z,33.20
2017-05-22T14:42:14.949Z,32.80
2017-05-22T14:44:43.105Z,32.80
2017-05-22T14:47:11.902Z,33.30
2017-05-22T14:49:40.764Z,32.60
2017-05-22T14:52:09.597Z,33.10
2017-05-22T14:54:38.451Z,33.60
2017-05-22T14:57:07.299Z,34.40
2017-05-22T14:59:36.143Z,34.90
2017-05-22T15:02:04.985Z,35.00
2017-05-22T15:04:33.816Z,35.90
2017-05-22T15:07:02.645Z,35.10
2017-05-22T15:09:31.487Z,35.90
2017-05-22T15:12:00.311Z,36.00
2017-05-22T15:14:29.206Z,35.80
2017-05-22T15:16:58.062Z,35.90
2017-05-22T15:19:26.907Z,35.60
2017-05-22T15:21:55.761Z,35.30
2017-05-22T15:24:24.600Z,35.60
2017-05-22T15:26:53.459Z,35.50
2017-05-22T15:29:22.304Z,34.80
2017-05-22T15:31:51.151Z,35.10
2017-05-22T15:34:19.987Z,34.90
2017-05-22T15:36:48.833Z,35.70
2017-05-22T15:39:17.663Z,34.80
2017-05-22T15:41:46.515Z,35.00
2017-05-22T15:44:15.355Z,35.10
2017-05-22T15:46:44.185Z,35.00
2017-05-22T15:49:13.025Z,34.80
2017-05-22T15:51:41.869Z,35.80
2017-05-22T15:54:10.705Z,35.90
2017-05-22T15:56:39.553Z,36.40
2017-05-22T15:59:08.423Z,35.90
2017-05-22T16:01:37.248Z,35.50
2017-05-22T16:04:05.318Z,35.50
2017-05-22T16:06:34.179Z,35.80
2017-05-22T16:09:03.000Z,35.60
2017-05-22T16:11:31.851Z,36.50
2017-05-22T16:14:00.771Z,35.90
2017-05-22T16:16:29.662Z,36.40
2017-05-22T16:18:58.495Z,36.30
2017-05-22T16:21:27.319Z,36.50
2017-05-22T16:23:55.414Z,36.40
2017-05-22T16:26:24.259Z,36.30
2017-05-22T16:28:53.088Z,36.10
2017-05-22T16:31:21.960Z,36.50
2017-05-22T16:33:50.900Z,37.10
2017-05-22T16:36:19.773Z,36.80
2017-05-22T16:38:48.647Z,37.10
2017-05-22T16:41:17.734Z,37.00
2017-05-22T16:43:46.650Z,36.50
2017-05-22T16:46:15.595Z,36.60
2017-05-22T16:48:44.422Z,37.20
2017-05-22T16:51:13.347Z,36.90
2017-05-22T16:53:42.202Z,36.90
2017-05-22T16:56:11.051Z,36.90
2017-05-22T16:58:39.971Z,37.20
2017-05-22T17:01:08.851Z,37.90
2017-05-22T17:03:37.818Z,38.50
2017-05-22T17:06:06.799Z,37.90
2017-05-22T17:08:35.715Z,37.80
2017-05-22T17:11:04.590Z,37.80
2017-05-22T17:13:33.691Z,38.40
2017-05-22T17:16:02.836Z,38.00
2017-05-22T17:18:31.652Z,38.50
2017-05-22T17:21:00.563Z,38.30
2017-05-22T17:23:29.501Z,38.00
2017-05-22T17:25:58.364Z,38.20
2017-05-22T17:28:27.231Z,38.20
2017-05-22T17:30:56.120Z,38.30
2017-05-22T17:33:25.212Z,38.90
2017-05-22T17:35:54.087Z,38.60
2017-05-22T17:38:22.992Z,38.60
2017-05-22T17:40:51.882Z,38.80
2017-05-22T17:43:20.769Z,38.50
2017-05-22T17:45:49.624Z,38.80
2017-05-22T17:48:18.551Z,38.40
2017-05-22T17:50:47.452Z,38.70
2017-05-22T17:53:16.329Z,38.40
2017-05-22T17:55:45.187Z,38.80
2017-05-22T17:58:14.039Z,39.10
2017-05-22T18:00:43.005Z,39.20
2017-05-22T18:03:12.068Z,39.20
2017-05-22T18:05:41.184Z,39.50
2017-05-22T18:08:10.121Z,39.80
2017-05-22T18:10:39.040Z,40.20
2017-05-22T18:13:07.906Z,40.40
2017-05-22T18:15:36.763Z,40.70
2017-05-22T18:18:05.822Z,40.80
2017-05-22T18:20:34.732Z,41.00
2017-05-22T18:23:03.613Z,41.20
2017-05-22T18:25:32.508Z,41.20
2017-05-22T18:28:01.378Z,41.40
2017-05-22T18:30:30.264Z,41.40
2017-05-22T18:32:59.092Z,41.10
2017-05-22T18:35:27.924Z,41.20
2017-05-22T18:37:56.956Z,41.80
2017-05-22T18:40:25.798Z,42.10
2017-05-22T18:42:54.655Z,41.80
2017-05-22T18:45:23.494Z,42.40
2017-05-22T18:47:52.489Z,42.90
2017-05-22T18:50:21.349Z,43.70
2017-05-22T18:52:50.224Z,44.60
2017-05-22T18:55:19.061Z,45.10
2017-05-22T18:57:47.893Z,46.20
2017-05-22T19:00:16.947Z,48.40
2017-05-22T19:02:45.849Z,48.70
2017-05-22T19:05:14.731Z,49.50
2017-05-22T19:07:43.615Z,50.60
2017-05-22T19:10:12.514Z,50.60
2017-05-22T19:12:41.380Z,52.30
2017-05-22T19:15:10.271Z,52.30
2017-05-22T19:17:39.170Z,52.20
2017-05-22T19:20:08.023Z,52.80
2017-05-22T19:22:36.937Z,53.40
2017-05-22T19:25:05.837Z,53.10
2017-05-22T19:27:34.818Z,53.30
2017-05-22T19:30:03.661Z,53.70
2017-05-22T19:32:32.590Z,54.70
2017-05-22T19:35:01.810Z,55.00
2017-05-22T19:37:30.661Z,54.10
2017-05-22T19:39:59.512Z,54.00
2017-05-22T19:42:28.335Z,54.30
2017-05-22T19:44:57.177Z,54.10
2017-05-22T19:47:26.023Z,54.90
2017-05-22T19:49:54.876Z,54.80
2017-05-22T19:52:23.705Z,54.50
2017-05-22T19:54:52.640Z,54.80
2017-05-22T19:57:21.541Z,54.60
2017-05-22T19:59:50.305Z,55.00
2017-05-22T20:02:19.149Z,54.70
2017-05-22T20:04:47.976Z,54.50
2017-05-22T20:07:16.799Z,55.00
2017-05-22T20:09:45.633Z,55.00
2017-05-22T20:12:14.476Z,55.40
2017-05-22T20:14:43.330Z,55.40
2017-05-22T20:17:12.163Z,55.20
2017-05-22T20:19:40.996Z,55.90
2017-05-22T20:22:09.842Z,55.50
2017-05-22T20:24:38.678Z,56.50
2017-05-22T20:27:07.534Z,57.70
2017-05-22T20:29:36.372Z,57.20
2017-05-22T20:32:05.224Z,56.70
2017-05-22T20:34:33.296Z,56.70
2017-05-22T20:37:02.133Z,57.20
2017-05-22T20:39:30.976Z,57.00
2017-05-22T20:41:59.818Z,56.90
2017-05-22T20:44:28.668Z,56.40
2017-05-22T20:46:57.500Z,56.40
2017-05-22T20:49:26.372Z,56.40
2017-05-22T20:51:55.209Z,56.70
2017-05-22T20:54:24.137Z,56.90
2017-05-22T20:56:52.980Z,57.30
2017-05-22T20:59:21.828Z,57.10
2017-05-22T21:01:50.672Z,57.10
2017-05-22T21:04:19.514Z,56.80
2017-05-22T21:06:48.373Z,57.30
2017-05-22T21:09:17.211Z,57.10
2017-05-22T21:11:46.052Z,56.80
2017-05-22T21:14:14.899Z,57.10
2017-05-22T21:16:43.731Z,57.40
2017-05-22T21:19:12.576Z,58.30
2017-05-22T21:21:41.403Z,58.40
2017-05-22T21:24:10.252Z,58.50
2017-05-22T21:26:38.320Z,58.40
2017-05-22T21:29:07.152Z,58.60
2017-05-22T21:31:35.239Z,58.60
2017-05-22T21:34:04.077Z,57.50
2017-05-22T21:36:32.925Z,57.50
2017-05-22T21:39:01.761Z,57.80
2017-05-22T21:41:30.616Z,57.80
2017-05-22T21:43:59.463Z,58.30
2017-05-22T21:46:28.314Z,58.00
2017-05-22T21:48:57.155Z,59.40
2017-05-22T21:51:25.990Z,59.30
2017-05-22T21:53:54.832Z,58.80
2017-05-22T21:56:23.665Z,58.50
2017-05-22T21:58:52.618Z,59.10
2017-05-22T22:01:20.668Z,59.10
2017-05-22T22:03:49.556Z,58.80
2017-05-22T22:06:18.398Z,59.50
2017-05-22T22:08:47.492Z,58.50
2017-05-22T22:11:16.780Z,58.60
2017-05-22T22:13:45.908Z,59.10
2017-05-22T22:16:14.350Z,59.10
2017-05-22T22:18:43.245Z,59.60
2017-05-22T22:21:12.468Z,59.40
2017-05-22T22:23:41.850Z,59.50
2017-05-22T22:26:10.667Z,59.20
2017-05-22T22:28:39.513Z,59.70
2017-05-22T22:31:08.354Z,59.60
2017-05-22T22:33:37.271Z,59.90
2017-05-22T22:36:05.340Z,59.90
2017-05-22T22:38:34.175Z,59.50
2017-05-22T22:41:02.261Z,59.40
2017-05-22T22:43:31.096Z,59.70
2017-05-22T22:45:59.947Z,60.40
2017-05-22T22:48:28.775Z,61.20
2017-05-22T22:50:57.629Z,60.50
2017-05-22T22:53:26.516Z,59.90
2017-05-22T22:55:55.350Z,61.10
2017-05-22T22:58:24.192Z,60.50
2017-05-22T23:00:53.041Z,60.30
2017-05-22T23:03:21.888Z,60.40
2017-05-22T23:05:50.728Z,60.00
2017-05-22T23:08:19.693Z,59.90
2017-05-22T23:10:48.614Z,60.50
2017-05-22T23:13:17.481Z,60.30
2017-05-22T23:15:46.332Z,60.30
2017-05-22T23:18:15.173Z,60.40
2017-05-22T23:20:44.012Z,61.50
2017-05-22T23:23:12.856Z,60.90
2017-05-22T23:25:41.703Z,61.60
2017-05-22T23:28:10.539Z,61.00
2017-05-22T23:30:39.375Z,61.40
2017-05-22T23:33:08.235Z,61.20
2017-05-22T23:35:37.070Z,61.90
2017-05-22T23:38:06.132Z,62.30
2017-05-22T23:40:34.964Z,62.30
2017-05-22T23:43:03.821Z,62.10
2017-05-22T23:45:31.897Z,62.10
2017-05-22T23:48:00.738Z,61.70
2017-05-22T23:50:29.579Z,62.20
2017-05-22T23:52:58.425Z,62.20
2017-05-22T23:55:27.265Z,62.30
2017-05-22T23:57:56.110Z,62.40
